createdAt,value
2023-07-10T00:01:42.560Z,48.36
2023-07-10T00:04:20.430Z,48.42
2023-07-10T00:06:48.284Z,48.49
2023-07-10T00:09:14.841Z,48.45
2023-07-10T00:11:42.983Z,48.64
2023-07-10T00:14:25.477Z,48.85
2023-07-10T00:16:53.521Z,49.44
2023-07-10T00:19:23.805Z,49.31
2023-07-10T00:21:51.518Z,49.38
2023-07-10T00:24:17.970Z,49.70
2023-07-10T00:26:44.506Z,49.98
2023-07-10T00:29:23.486Z,50.14
2023-07-10T00:31:50.075Z,50.11
2023-07-10T00:34:18.280Z,50.34
2023-07-10T00:36:51.688Z,50.58
2023-07-10T00:39:25.764Z,50.46
2023-07-10T00:42:11.565Z,50.82
2023-07-10T00:45:01.584Z,50.97
2023-07-10T00:47:36.754Z,51.31
2023-07-10T00:50:10.356Z,51.14
2023-07-10T00:52:41.073Z,51.34
2023-07-10T00:55:32.333Z,52.13
2023-07-10T00:58:30.155Z,52.06
2023-07-10T01:01:07.637Z,52.53
2023-07-10T01:03:35.785Z,52.14
2023-07-10T01:06:17.281Z,52.32
2023-07-10T01:08:49.735Z,51.78
2023-07-10T01:11:17.195Z,51.74
2023-07-10T01:13:47.552Z,51.33
2023-07-10T01:16:14.379Z,51.54
2023-07-10T01:18:42.270Z,51.36
2023-07-10T01:21:09.863Z,51.37
2023-07-10T01:23:36.388Z,51.33
2023-07-10T01:26:05.339Z,51.34
2023-07-10T01:28:36.178Z,51.32
2023-07-10T01:31:09.586Z,52.52
2023-07-10T01:33:41.117Z,52.78
2023-07-10T01:36:10.626Z,52.64
2023-07-10T01:38:47.397Z,53.27
2023-07-10T01:41:24.843Z,53.40
2023-07-10T01:43:51.419Z,53.24
2023-07-10T01:46:24.957Z,53.26
2023-07-10T01:48:56.036Z,52.96
2023-07-10T01:51:23.807Z,52.94
2023-07-10T01:53:51.312Z,52.69
2023-07-10T01:56:20.442Z,52.75
2023-07-10T01:58:46.900Z,52.50
2023-07-10T02:01:13.515Z,52.65
2023-07-10T02:03:40.166Z,52.69
2023-07-10T02:06:06.886Z,52.73
2023-07-10T02:08:33.553Z,52.78
2023-07-10T02:11:00.141Z,52.84
2023-07-10T02:13:26.903Z,52.79
2023-07-10T02:15:53.379Z,52.75
2023-07-10T02:18:19.905Z,52.89
2023-07-10T02:20:46.381Z,52.67
2023-07-10T02:23:12.898Z,52.62
2023-07-10T02:25:39.700Z,52.84
2023-07-10T02:28:07.151Z,52.63
2023-07-10T02:30:33.706Z,52.36
2023-07-10T02:33:00.350Z,52.31
2023-07-10T02:35:26.790Z,51.64
2023-07-10T02:37:53.276Z,51.82
2023-07-10T02:40:19.702Z,52.55
2023-07-10T02:42:46.317Z,52.18
2023-07-10T02:45:14.338Z,52.74
2023-07-10T02:47:40.980Z,53.08
2023-07-10T02:50:10.342Z,53.38
2023-07-10T02:52:36.839Z,54.07
2023-07-10T02:55:03.886Z,54.18
2023-07-10T02:57:30.372Z,54.98
2023-07-10T02:59:58.117Z,54.58
2023-07-10T03:02:25.280Z,54.93
2023-07-10T03:04:51.910Z,55.12
2023-07-10T03:07:18.378Z,54.71
2023-07-10T03:09:45.587Z,55.32
2023-07-10T03:12:12.070Z,55.24
2023-07-10T03:14:38.675Z,55.10
2023-07-10T03:17:05.481Z,55.02
2023-07-10T03:19:32.830Z,54.83
2023-07-10T03:21:59.463Z,54.92
2023-07-10T03:24:26.154Z,54.88
2023-07-10T03:26:52.642Z,54.36
2023-07-10T03:29:19.101Z,54.03
2023-07-10T03:31:45.658Z,53.92
2023-07-10T03:34:13.160Z,53.77
2023-07-10T03:36:40.190Z,53.42
2023-07-10T03:39:07.849Z,53.40
2023-07-10T03:41:34.756Z,53.67
2023-07-10T03:44:01.505Z,53.69
2023-07-10T03:46:28.261Z,54.25
2023-07-10T03:48:54.770Z,53.89
2023-07-10T03:51:21.255Z,54.18
2023-07-10T03:53:48.470Z,54.25
2023-07-10T03:56:14.905Z,54.53
2023-07-10T03:58:44.126Z,54.13
2023-07-10T04:01:11.421Z,54.48
2023-07-10T04:03:40.115Z,54.34
2023-07-10T04:06:08.887Z,54.65
2023-07-10T04:08:38.506Z,56.13
2023-07-10T04:11:08.781Z,56.64
2023-07-10T04:13:35.449Z,57.31
2023-07-10T04:16:10.974Z,60.30
2023-07-10T04:18:39.385Z,61.09
2023-07-10T04:21:29.799Z,61.54
2023-07-10T04:23:57.421Z,61.93
2023-07-10T04:26:26.883Z,61.83
2023-07-10T04:28:56.483Z,62.39
2023-07-10T04:31:24.568Z,63.37
2023-07-10T04:33:52.322Z,62.41
2023-07-10T04:36:20.389Z,62.50
2023-07-10T04:38:47.171Z,62.23
2023-07-10T04:41:19.134Z,61.63
2023-07-10T04:43:45.796Z,61.53
2023-07-10T04:46:14.110Z,61.71
2023-07-10T04:48:40.800Z,58.50
2023-07-10T04:51:09.176Z,57.11
2023-07-10T04:53:35.834Z,57.33
2023-07-10T04:56:04.733Z,56.39
2023-07-10T04:58:46.537Z,55.64
2023-07-10T05:01:13.061Z,54.90
2023-07-10T05:03:39.499Z,54.24
2023-07-10T05:06:06.234Z,53.87
2023-07-10T05:08:32.942Z,54.04
2023-07-10T05:10:59.697Z,55.04
2023-07-10T05:13:28.796Z,56.01
2023-07-10T05:15:57.306Z,56.39
2023-07-10T05:18:24.173Z,56.13
2023-07-10T05:20:50.663Z,56.21
2023-07-10T05:23:17.573Z,55.81
2023-07-10T05:26:03.270Z,55.69
2023-07-10T05:28:30.246Z,55.43
2023-07-10T05:30:59.923Z,54.00
2023-07-10T05:33:26.971Z,53.81
2023-07-10T05:35:56.374Z,53.55
2023-07-10T05:38:25.108Z,52.74
2023-07-10T05:40:51.907Z,52.77
2023-07-10T05:43:18.368Z,52.94
2023-07-10T05:45:45.357Z,52.51
2023-07-10T05:48:11.740Z,53.32
2023-07-10T05:50:38.528Z,53.49
2023-07-10T05:53:05.952Z,53.70
2023-07-10T05:55:32.451Z,53.90
2023-07-10T05:57:59.018Z,53.30
2023-07-10T06:00:25.780Z,52.18
2023-07-10T06:02:52.262Z,51.21
2023-07-10T06:05:18.717Z,50.69
2023-07-10T06:07:45.281Z,48.55
2023-07-10T06:10:11.762Z,45.08
2023-07-10T06:12:38.280Z,43.36
2023-07-10T06:15:05.336Z,41.88
2023-07-10T06:17:31.932Z,39.91
2023-07-10T06:19:58.435Z,39.90
2023-07-10T06:22:25.112Z,39.36
2023-07-10T06:24:51.529Z,37.75
2023-07-10T06:27:18.275Z,37.78
2023-07-10T06:29:44.801Z,39.21
2023-07-10T06:32:11.365Z,40.53
2023-07-10T06:34:37.899Z,40.87
2023-07-10T06:37:04.692Z,41.05
2023-07-10T06:39:31.186Z,41.09
2023-07-10T06:41:57.709Z,38.52
2023-07-10T06:44:24.089Z,37.13
2023-07-10T06:46:50.792Z,36.15
2023-07-10T06:49:17.552Z,34.77
2023-07-10T06:51:44.097Z,34.59
2023-07-10T06:54:11.459Z,34.90
2023-07-10T06:56:38.166Z,34.62
2023-07-10T06:59:04.612Z,35.99
2023-07-10T07:01:31.053Z,37.02
2023-07-10T07:03:57.799Z,37.69
2023-07-10T07:06:24.638Z,37.64
2023-07-10T07:08:53.038Z,38.87
2023-07-10T07:11:20.386Z,39.58
2023-07-10T07:13:47.000Z,40.17
2023-07-10T07:16:14.811Z,40.76
2023-07-10T07:18:41.434Z,41.47
2023-07-10T07:21:08.888Z,43.01
2023-07-10T07:23:35.632Z,42.58
2023-07-10T07:26:02.449Z,42.19
2023-07-10T07:28:29.113Z,40.58
2023-07-10T07:31:02.275Z,40.34
2023-07-10T07:33:28.807Z,41.73
2023-07-10T07:35:55.284Z,42.33
2023-07-10T07:38:22.610Z,42.48
2023-07-10T07:40:49.512Z,42.36
2023-07-10T07:43:17.266Z,40.22
2023-07-10T07:45:57.996Z,39.72
2023-07-10T07:48:26.064Z,39.62
2023-07-10T07:51:15.549Z,38.95
2023-07-10T07:53:42.911Z,38.54
2023-07-10T07:56:10.124Z,37.80
2023-07-10T07:58:37.009Z,36.91
2023-07-10T08:01:04.061Z,35.66
2023-07-10T08:03:31.951Z,35.00
2023-07-10T08:05:58.869Z,33.37
2023-07-10T08:08:25.981Z,33.00
2023-07-10T08:10:52.521Z,34.28
2023-07-10T08:13:21.029Z,34.14
2023-07-10T08:15:47.733Z,34.85
2023-07-10T08:18:14.452Z,32.70
2023-07-10T08:20:41.397Z,33.00
2023-07-10T08:23:07.912Z,31.80
2023-07-10T08:25:34.620Z,32.07
2023-07-10T08:28:01.740Z,30.98
2023-07-10T08:30:28.954Z,30.71
2023-07-10T08:32:55.853Z,30.52
2023-07-10T08:35:23.399Z,30.17
2023-07-10T08:37:50.936Z,29.72
2023-07-10T08:40:41.726Z,30.95
2023-07-10T08:43:41.174Z,30.65
2023-07-10T08:46:11.994Z,30.80
2023-07-10T08:48:57.411Z,29.51
2023-07-10T08:51:40.986Z,28.21
2023-07-10T08:54:12.902Z,28.19
2023-07-10T08:56:51.487Z,29.28
2023-07-10T08:59:43.718Z,28.96
2023-07-10T09:02:32.541Z,29.40
2023-07-10T09:05:00.948Z,30.27
2023-07-10T09:07:28.442Z,31.12
2023-07-10T09:10:03.805Z,31.87
2023-07-10T09:12:42.968Z,32.91
2023-07-10T09:15:16.774Z,33.71
2023-07-10T09:18:02.190Z,33.52
2023-07-10T09:20:28.873Z,35.56
2023-07-10T09:23:18.487Z,35.39
2023-07-10T09:25:44.932Z,35.22
2023-07-10T09:28:11.488Z,33.82
2023-07-10T09:30:52.877Z,34.40
2023-07-10T09:33:21.528Z,34.49
2023-07-10T09:35:49.044Z,33.82
2023-07-10T09:38:19.804Z,33.30
2023-07-10T09:40:51.471Z,32.50
2023-07-10T09:43:21.159Z,32.25
2023-07-10T09:45:58.584Z,31.92
2023-07-10T09:48:32.720Z,31.50
2023-07-10T09:51:03.736Z,32.18
2023-07-10T09:53:33.088Z,32.16
2023-07-10T09:56:00.225Z,32.80
2023-07-10T09:58:27.446Z,32.02
2023-07-10T10:00:54.032Z,33.18
2023-07-10T10:03:26.874Z,33.32
2023-07-10T10:05:56.646Z,32.58
2023-07-10T10:08:28.665Z,32.06
2023-07-10T10:11:02.504Z,32.06
2023-07-10T10:13:31.272Z,32.27
2023-07-10T10:16:07.443Z,34.06
2023-07-10T10:18:58.222Z,34.28
2023-07-10T10:21:25.210Z,34.37
2023-07-10T10:23:58.494Z,34.57
2023-07-10T10:26:30.602Z,35.21
2023-07-10T10:29:00.041Z,34.27
2023-07-10T10:31:32.742Z,34.55
2023-07-10T10:34:24.456Z,34.09
2023-07-10T10:37:27.381Z,33.96
2023-07-10T10:40:12.470Z,33.07
2023-07-10T10:42:50.373Z,32.71
2023-07-10T10:45:35.496Z,32.56
2023-07-10T10:48:16.748Z,32.49
2023-07-10T10:51:27.886Z,32.04
2023-07-10T10:54:03.502Z,32.60
2023-07-10T10:56:39.554Z,32.30
2023-07-10T10:59:24.492Z,32.39
2023-07-10T11:01:53.625Z,32.88
2023-07-10T11:04:37.396Z,32.99
2023-07-10T11:07:11.954Z,33.10
2023-07-10T11:10:00.892Z,32.81
2023-07-10T11:12:31.569Z,32.12
2023-07-10T11:15:03.189Z,32.72
2023-07-10T11:17:30.152Z,31.57
2023-07-10T11:19:56.769Z,30.96
2023-07-10T11:22:32.993Z,30.43
2023-07-10T11:25:02.396Z,29.91
2023-07-10T11:27:34.553Z,30.48
2023-07-10T11:30:09.250Z,31.10
2023-07-10T11:32:56.822Z,32.13
2023-07-10T11:35:24.101Z,31.60
2023-07-10T11:37:50.683Z,32.36
2023-07-10T11:40:29.444Z,33.54
2023-07-10T11:42:56.669Z,33.08
2023-07-10T11:45:37.022Z,32.22
2023-07-10T11:48:03.626Z,30.82
2023-07-10T11:50:30.931Z,27.30
2023-07-10T11:53:15.658Z,26.96
2023-07-10T11:55:54.177Z,26.27
2023-07-10T11:58:30.011Z,27.20
2023-07-10T12:01:16.483Z,25.65
2023-07-10T12:03:43.766Z,24.62
2023-07-10T12:06:25.150Z,25.81
2023-07-10T12:08:53.691Z,26.85
2023-07-10T12:11:27.163Z,26.55
2023-07-10T12:13:54.095Z,25.92
2023-07-10T12:16:36.747Z,24.43
2023-07-10T12:19:15.794Z,25.44
2023-07-10T12:21:43.170Z,25.88
2023-07-10T12:24:14.068Z,25.22
2023-07-10T12:27:05.820Z,25.57
2023-07-10T12:29:27.186Z,24.28
2023-07-10T12:31:53.693Z,24.65
2023-07-10T12:34:25.079Z,22.83
2023-07-10T12:36:54.982Z,23.30
2023-07-10T12:39:23.696Z,23.25
2023-07-10T12:41:53.958Z,22.42
2023-07-10T12:44:44.413Z,21.15
2023-07-10T12:47:14.876Z,22.82
2023-07-10T12:49:51.094Z,22.44
2023-07-10T12:52:17.638Z,22.28
2023-07-10T12:54:51.198Z,21.84
2023-07-10T12:57:26.475Z,23.06
2023-07-10T13:00:01.813Z,21.45
2023-07-10T13:02:36.268Z,21.98
2023-07-10T13:05:06.495Z,22.58
2023-07-10T13:07:36.467Z,22.78
2023-07-10T13:10:20.259Z,21.47
2023-07-10T13:12:49.749Z,21.10
2023-07-10T13:15:18.597Z,20.80
2023-07-10T13:17:49.464Z,20.37
2023-07-10T13:20:28.100Z,20.42
2023-07-10T13:23:00.332Z,20.76
2023-07-10T13:25:32.709Z,21.01
2023-07-10T13:27:59.206Z,21.50
2023-07-10T13:30:26.505Z,20.59
2023-07-10T13:32:53.278Z,20.60
2023-07-10T13:35:20.666Z,21.69
2023-07-10T13:37:47.298Z,20.22
2023-07-10T13:40:20.779Z,19.61
2023-07-10T13:42:47.246Z,20.71
2023-07-10T13:45:13.763Z,19.93
2023-07-10T13:47:40.218Z,19.81
2023-07-10T13:50:07.087Z,20.48
2023-07-10T13:52:33.537Z,20.77
2023-07-10T13:55:00.052Z,21.17
2023-07-10T13:57:31.760Z,21.14
2023-07-10T14:00:02.392Z,20.34
2023-07-10T14:02:38.055Z,20.96
2023-07-10T14:05:12.637Z,20.83
2023-07-10T14:07:41.152Z,21.20
2023-07-10T14:10:13.189Z,20.87
2023-07-10T14:12:39.898Z,21.18
2023-07-10T14:15:06.949Z,21.85
2023-07-10T14:17:35.346Z,21.74
2023-07-10T14:20:06.191Z,21.18
2023-07-10T14:22:34.428Z,21.68
2023-07-10T14:25:01.309Z,21.78
2023-07-10T14:27:28.942Z,21.17
2023-07-10T14:29:57.410Z,21.05
2023-07-10T14:32:26.732Z,21.20
2023-07-10T14:34:53.418Z,21.57
2023-07-10T14:37:26.879Z,21.69
2023-07-10T14:39:53.974Z,21.72
2023-07-10T14:42:26.067Z,22.52
2023-07-10T14:44:52.912Z,22.19
2023-07-10T14:47:19.391Z,22.15
2023-07-10T14:49:49.577Z,22.27
2023-07-10T14:52:25.360Z,22.61
2023-07-10T14:54:59.370Z,22.52
2023-07-10T14:57:29.051Z,22.35
2023-07-10T14:59:56.307Z,22.94
2023-07-10T15:02:26.132Z,22.92
2023-07-10T15:04:53.699Z,23.86
2023-07-10T15:07:21.526Z,24.00
2023-07-10T15:09:50.920Z,24.26
2023-07-10T15:12:21.934Z,23.99
2023-07-10T15:14:51.297Z,24.29
2023-07-10T15:17:26.335Z,23.10
2023-07-10T15:19:53.609Z,24.08
2023-07-10T15:22:22.842Z,23.81
2023-07-10T15:24:50.604Z,24.25
2023-07-10T15:27:17.908Z,24.64
2023-07-10T15:29:44.577Z,25.23
2023-07-10T15:32:17.167Z,24.72
2023-07-10T15:34:45.028Z,25.19
2023-07-10T15:37:21.547Z,24.27
2023-07-10T15:39:48.958Z,24.26
2023-07-10T15:42:17.029Z,24.26
2023-07-10T15:44:44.703Z,23.83
2023-07-10T15:47:37.567Z,24.07
2023-07-10T15:50:04.579Z,23.93
2023-07-10T15:52:35.528Z,24.07
2023-07-10T15:55:20.977Z,24.11
2023-07-10T15:57:49.221Z,24.09
2023-07-10T16:00:18.007Z,24.84
2023-07-10T16:02:47.057Z,24.87
2023-07-10T16:05:21.556Z,25.75
2023-07-10T16:07:49.507Z,25.50
2023-07-10T16:10:16.117Z,25.42
2023-07-10T16:12:43.445Z,25.92
2023-07-10T16:15:15.010Z,26.06
2023-07-10T16:17:41.844Z,25.93
2023-07-10T16:20:14.021Z,25.82
2023-07-10T16:22:40.924Z,25.87
2023-07-10T16:25:15.988Z,25.64
2023-07-10T16:27:44.296Z,25.50
2023-07-10T16:30:19.737Z,25.60
2023-07-10T16:32:49.599Z,25.68
2023-07-10T16:35:18.706Z,25.40
2023-07-10T16:37:45.995Z,25.91
2023-07-10T16:40:17.976Z,25.87
2023-07-10T16:42:46.312Z,26.05
2023-07-10T16:45:22.282Z,25.80
2023-07-10T16:47:49.132Z,26.31
2023-07-10T16:50:18.341Z,26.53
2023-07-10T16:52:46.041Z,25.98
2023-07-10T16:55:18.252Z,26.60
2023-07-10T16:57:47.078Z,26.92
2023-07-10T17:00:16.194Z,26.28
2023-07-10T17:02:45.258Z,26.54
2023-07-10T17:05:14.100Z,26.97
2023-07-10T17:07:42.654Z,27.49
2023-07-10T17:10:09.824Z,27.27
2023-07-10T17:12:37.928Z,27.43
2023-07-10T17:15:14.016Z,27.87
2023-07-10T17:17:40.790Z,28.09
2023-07-10T17:20:10.295Z,27.72
2023-07-10T17:22:36.836Z,27.52
2023-07-10T17:25:10.896Z,27.34
2023-07-10T17:27:37.462Z,27.21
2023-07-10T17:30:05.476Z,27.58
2023-07-10T17:32:32.138Z,28.01
2023-07-10T17:34:59.959Z,28.18
2023-07-10T17:37:26.667Z,28.53
2023-07-10T17:39:53.119Z,28.55
2023-07-10T17:42:25.917Z,28.47
2023-07-10T17:44:52.448Z,28.58
2023-07-10T17:47:19.614Z,28.81
2023-07-10T17:49:46.374Z,29.26
2023-07-10T17:52:18.005Z,29.30
2023-07-10T17:54:45.470Z,29.58
2023-07-10T17:57:18.012Z,30.17
2023-07-10T17:59:46.173Z,30.26
2023-07-10T18:02:23.371Z,30.37
2023-07-10T18:04:50.252Z,30.29
2023-07-10T18:07:16.873Z,30.78
2023-07-10T18:09:43.364Z,30.27
2023-07-10T18:12:14.245Z,31.16
2023-07-10T18:14:46.348Z,30.65
2023-07-10T18:17:20.591Z,31.13
2023-07-10T18:19:50.619Z,30.98
2023-07-10T18:22:17.797Z,31.67
2023-07-10T18:24:44.986Z,32.09
2023-07-10T18:27:21.687Z,32.25
2023-07-10T18:29:49.559Z,32.07
2023-07-10T18:32:21.220Z,33.11
2023-07-10T18:34:50.686Z,33.24
2023-07-10T18:37:19.557Z,32.64
2023-07-10T18:39:46.258Z,33.14
2023-07-10T18:42:22.348Z,32.81
2023-07-10T18:44:48.956Z,32.96
2023-07-10T18:47:15.440Z,32.70
2023-07-10T18:49:42.053Z,33.27
2023-07-10T18:52:30.218Z,34.06
2023-07-10T18:54:56.919Z,33.40
2023-07-10T18:57:23.638Z,33.81
2023-07-10T18:59:50.124Z,33.26
2023-07-10T19:02:16.841Z,33.12
2023-07-10T19:04:43.420Z,33.21
2023-07-10T19:07:13.597Z,33.45
2023-07-10T19:09:42.654Z,33.37
2023-07-10T19:12:16.959Z,33.50
2023-07-10T19:14:45.084Z,33.69
2023-07-10T19:17:21.127Z,33.52
2023-07-10T19:19:52.655Z,33.46
2023-07-10T19:22:19.704Z,34.07
2023-07-10T19:24:46.454Z,33.99
2023-07-10T19:27:12.842Z,34.50
2023-07-10T19:29:40.443Z,34.20
2023-07-10T19:32:21.722Z,34.41
2023-07-10T19:34:49.998Z,34.21
2023-07-10T19:37:16.521Z,34.42
2023-07-10T19:39:44.725Z,34.58
2023-07-10T19:42:11.157Z,34.68
2023-07-10T19:44:55.110Z,34.62
2023-07-10T19:47:24.413Z,34.86
2023-07-10T19:49:52.761Z,34.77
2023-07-10T19:52:19.889Z,35.31
2023-07-10T19:54:46.493Z,35.12
2023-07-10T19:57:18.942Z,34.97
2023-07-10T19:59:45.716Z,35.10
2023-07-10T20:02:14.047Z,35.81
2023-07-10T20:04:40.525Z,35.36
2023-07-10T20:07:07.122Z,35.26
2023-07-10T20:09:33.601Z,35.26
2023-07-10T20:12:00.130Z,35.37
2023-07-10T20:14:28.598Z,35.29
2023-07-10T20:16:56.027Z,35.76
2023-07-10T20:19:24.295Z,35.68
2023-07-10T20:21:55.540Z,36.01
2023-07-10T20:24:22.507Z,36.67
2023-07-10T20:26:49.843Z,37.24
2023-07-10T20:29:19.511Z,37.19
2023-07-10T20:31:47.124Z,37.53
2023-07-10T20:34:14.980Z,37.80
2023-07-10T20:36:44.490Z,38.15
2023-07-10T20:39:16.877Z,38.77
2023-07-10T20:41:44.812Z,40.13
2023-07-10T20:44:15.525Z,40.46
2023-07-10T20:46:44.835Z,40.58
2023-07-10T20:49:19.782Z,40.89
2023-07-10T20:51:46.787Z,40.52
2023-07-10T20:54:15.760Z,40.91
2023-07-10T20:56:43.395Z,41.75
2023-07-10T20:59:21.554Z,41.68
2023-07-10T21:01:49.533Z,41.17
2023-07-10T21:04:17.285Z,41.90
2023-07-10T21:06:43.915Z,42.19
2023-07-10T21:09:28.728Z,42.12
2023-07-10T21:11:55.416Z,42.29
2023-07-10T21:14:22.042Z,42.32
2023-07-10T21:16:48.645Z,42.58
2023-07-10T21:19:23.942Z,42.27
2023-07-10T21:21:51.810Z,42.67
2023-07-10T21:24:21.152Z,42.89
2023-07-10T21:26:55.078Z,42.94
2023-07-10T21:29:21.615Z,43.33
2023-07-10T21:31:48.112Z,43.11
2023-07-10T21:34:15.733Z,42.84
2023-07-10T21:36:43.352Z,42.94
2023-07-10T21:39:10.093Z,42.79
2023-07-10T21:41:39.365Z,42.34
2023-07-10T21:44:09.020Z,42.93
2023-07-10T21:46:36.259Z,42.74
2023-07-10T21:49:03.321Z,43.36
2023-07-10T21:51:29.924Z,43.76
2023-07-10T21:53:56.421Z,43.69
2023-07-10T21:56:25.956Z,44.22
2023-07-10T21:58:55.741Z,44.15
2023-07-10T22:01:26.255Z,44.21
2023-07-10T22:03:53.231Z,44.64
2023-07-10T22:06:19.903Z,44.37
2023-07-10T22:08:46.640Z,44.41
2023-07-10T22:11:20.079Z,44.96
2023-07-10T22:13:48.796Z,45.36
2023-07-10T22:16:30.211Z,44.78
2023-07-10T22:18:59.567Z,45.36
2023-07-10T22:21:30.005Z,45.46
2023-07-10T22:23:57.377Z,45.30
2023-07-10T22:26:25.153Z,45.21
2023-07-10T22:28:51.846Z,45.86
2023-07-10T22:31:24.162Z,46.06
2023-07-10T22:33:51.214Z,46.46
2023-07-10T22:36:19.643Z,46.12
2023-07-10T22:38:46.538Z,47.07
2023-07-10T22:41:31.764Z,46.90
2023-07-10T22:44:08.030Z,47.29
2023-07-10T22:46:36.973Z,48.02
2023-07-10T22:49:05.191Z,48.17
2023-07-10T22:51:34.137Z,48.44
2023-07-10T22:54:04.820Z,48.70
2023-07-10T22:56:34.304Z,48.40
2023-07-10T22:59:01.417Z,48.09
2023-07-10T23:01:28.577Z,48.59
2023-07-10T23:03:55.410Z,48.99
2023-07-10T23:06:28.107Z,48.80
2023-07-10T23:08:55.615Z,49.16
2023-07-10T23:11:22.558Z,49.75
2023-07-10T23:13:50.179Z,49.23
2023-07-10T23:16:21.522Z,49.42
2023-07-10T23:18:59.193Z,49.23
2023-07-10T23:21:27.635Z,49.39
2023-07-10T23:23:54.463Z,50.41
2023-07-10T23:26:22.847Z,50.61
2023-07-10T23:28:50.045Z,50.36
2023-07-10T23:31:23.738Z,50.31
2023-07-10T23:33:50.895Z,50.20
2023-07-10T23:36:18.167Z,50.73
2023-07-10T23:38:44.697Z,51.06
2023-07-10T23:41:12.741Z,51.58
2023-07-10T23:43:40.348Z,51.74
2023-07-10T23:46:07.543Z,51.30
2023-07-10T23:48:34.523Z,51.70
2023-07-10T23:51:01.405Z,51.54
2023-07-10T23:53:28.156Z,52.14
2023-07-10T23:55:54.644Z,52.73
2023-07-10T23:58:21.244Z,52.30
